Home > Products > Valid Products > MTR

000
SAUS43 KEAX 072353
MTRCDJ
METAR KCDJ 072352Z AUTO 29016G30KT 07/M04 A2996 RMK AO1 PK WND
30030/2347 PRESRR SLP153 T00721039 10117 20072 53004





000
SAUS43 KEAX 072253
MTRCDJ
METAR KCDJ 072252Z AUTO 30011G29KT 09/M06 A2994 RMK AO1 PK WND
30029/2245 SLP146 T00891056





000
SAUS43 KEAX 072253
MTRCDJ
METAR KCDJ 072252Z AUTO 30011G29KT 09/M06 A2994 RMK AO1 PK WND
30029/2245 SLP146 T00891056





000
SAUS43 KEAX 072153
MTRCDJ
METAR KCDJ 072152Z AUTO 30012G19KT 10/M04 A2994 RMK AO1 PK WND
31026/2059 SLP146 T01001039





000
SAUS43 KEAX 072053
MTRCDJ
METAR KCDJ 072052Z AUTO 30009G22KT 11/M02 A2995 RMK AO1 SLP147
T01061017 55014





000
SAUS43 KEAX 071953
MTRCDJ
METAR KCDJ 071952Z AUTO 28011G23KT 250V310 12/M03 A2994 RMK AO1
SLP145 T01171028





000
SAUS43 KEAX 071853
MTRCDJ
METAR KCDJ 071852Z AUTO 31014G23KT 11/M03 A2998 RMK AO1 SLP157
T01111028





000
SAUS43 KEAX 071853
MTRCDJ
METAR KCDJ 071852Z AUTO 31014G23KT 11/M03 A2998 RMK AO1 SLP157
T01111028





000
SAUS43 KEAX 071753
MTRCDJ
METAR KCDJ 071752Z AUTO 31010G19KT 11/M03 A2999 RMK AO1 SLP162
T01061028 10106 20028 50003





000
SAUS43 KEAX 071753
MTRCDJ
METAR KCDJ 071752Z AUTO 31010G19KT 11/M03 A2999 RMK AO1 SLP162
T01061028 10106 20028 50003





000
SAUS43 KEAX 071653
MTRCDJ
METAR KCDJ 071652Z AUTO 31012G17KT 08/M01 A3000 RMK AO1 SLP166
T00831011





000
SAUS43 KEAX 071553
MTRCDJ
METAR KCDJ 071552Z AUTO 29009G17KT 06/M02 A2999 RMK AO1 SLP163
T00561017





000
SAUS43 KEAX 071454
MTRCDJ
METAR KCDJ 071452Z AUTO VRB05KT 04/M02 A2998 RMK AO1 SLP161
T00441017 53008





000
SAUS43 KEAX 071353
MTRCDJ
METAR KCDJ 071352Z AUTO 27005KT 04/M02 A2996 RMK AO1 SLP155
T00391022





000
SAUS43 KEAX 071253
MTRCDJ
METAR KCDJ 071252Z AUTO VRB04KT 04/M03 A2996 RMK AO1 SLP154
T00391028





000
SAUS43 KEAX 071253
MTRCDJ
METAR KCDJ 071252Z AUTO VRB04KT 04/M03 A2996 RMK AO1 SLP154
T00391028





000
SAUS43 KEAX 071153
MTRCDJ
METAR KCDJ 071152Z AUTO 24004KT 03/M03 A2996 RMK AO1 SLP152
T00281028 10039 20022 56013





000
SAUS43 KEAX 071053
MTRCDJ
METAR KCDJ 071052Z AUTO 21005KT 03/M03 A2996 RMK AO1 SLP151
T00281028





000
SAUS43 KEAX 070953
MTRCDJ
METAR KCDJ 070952Z AUTO 22005KT 04/M02 A2998 RMK AO1 SLP157
T00391022





000
SAUS43 KEAX 070853
MTRCDJ
METAR KCDJ 070852Z AUTO 21009KT 03/M02 A3000 RMK AO1 SLP163
T00331017 56026





000
SAUS43 KEAX 070753
MTRCDJ
METAR KCDJ 070752Z AUTO 18007KT 03/M02 A3002 RMK AO1 SLP173
T00281017





000
SAUS43 KEAX 070653
MTRCDJ
METAR KCDJ 070652Z AUTO 18007KT 03/M02 A3004 RMK AO1 SLP180
T00281017





000
SAUS43 KEAX 070653
MTRCDJ
METAR KCDJ 070652Z AUTO 18007KT 03/M02 A3004 RMK AO1 SLP180
T00281017





000
SAUS43 KEAX 070553
MTRCDJ
METAR KCDJ 070552Z AUTO 19007KT 03/M02 A3008 RMK AO1 SLP193
T00331017 10067 20028 400941044 56012





000
SAUS43 KEAX 070553
MTRCDJ
METAR KCDJ 070552Z AUTO 19007KT 03/M02 A3008 RMK AO1 SLP193
T00331017 10067 20028 400941044 56012





000
SAUS43 KEAX 070453
MTRCDJ
METAR KCDJ 070452Z AUTO 20006KT 04/M01 A3008 RMK AO1 SLP196
T00391011





000
SAUS43 KEAX 070453
MTRCDJ
METAR KCDJ 070452Z AUTO 20006KT 04/M01 A3008 RMK AO1 SLP196
T00391011





000
SAUS43 KEAX 070353
MTRCDJ
METAR KCDJ 070352Z AUTO 19007KT 04/M01 A3009 RMK AO1 SLP197
T00441011





000
SAUS43 KEAX 070253
MTRCDJ
METAR KCDJ 070252Z AUTO 18006KT 04/M02 A3011 RMK AO1 SLP208
T00391017 56020





000
SAUS43 KEAX 070253
MTRCDJ
METAR KCDJ 070252Z AUTO 18006KT 04/M02 A3011 RMK AO1 SLP208
T00391017 56020





000
SAUS43 KEAX 070153
MTRCDJ
METAR KCDJ 070152Z AUTO 17005KT 04/M02 A3013 RMK AO1 SLP215
T00391017





000
SAUS43 KEAX 070153
MTRCDJ
METAR KCDJ 070152Z AUTO 17005KT 04/M02 A3013 RMK AO1 SLP215
T00391017





000
SAUS43 KEAX 070053
MTRCDJ
METAR KCDJ 070052Z AUTO 21004KT 06/M02 A3016 RMK AO1 SLP224
T00611017





000
SAUS43 KEAX 070053
MTRCDJ
METAR KCDJ 070052Z AUTO 21004KT 06/M02 A3016 RMK AO1 SLP224
T00611017





000
SAUS43 KEAX 062353
MTRCDJ
METAR KCDJ 062352Z AUTO 22003KT 07/M01 A3017 RMK AO1 SLP230
T00671011 10094 20061 56012





000
SAUS43 KEAX 062353
MTRCDJ
METAR KCDJ 062352Z AUTO 22003KT 07/M01 A3017 RMK AO1 SLP230
T00671011 10094 20061 56012





000
SAUS43 KEAX 062253
MTRCDJ
METAR KCDJ 062252Z AUTO 24007KT 09/M01 A3018 RMK AO1 SLP231
T00891006





000
SAUS43 KEAX 062153
MTRCDJ
METAR KCDJ 062152Z AUTO 23007KT 09/M01 A3019 RMK AO1 SLP234
T00941006





000
SAUS43 KEAX 062053
MTRCDJ
METAR KCDJ 062052Z AUTO 21009G16KT 09/00 A3021 RMK AO1 SLP240
T00940000 56023





000
SAUS43 KEAX 061953
MTRCDJ
METAR KCDJ 061952Z AUTO 23008KT 08/00 A3023 RMK AO1 SLP247 T00830000





000
SAUS43 KEAX 061953
MTRCDJ
METAR KCDJ 061952Z AUTO 23008KT 08/00 A3023 RMK AO1 SLP247 T00830000





000
SAUS43 KEAX 061853
MTRCDJ
METAR KCDJ 061852Z AUTO VRB04KT 08/01 A3024 RMK AO1 SLP251 T00780006





000
SAUS43 KEAX 061853
MTRCDJ
METAR KCDJ 061852Z AUTO VRB04KT 08/01 A3024 RMK AO1 SLP251 T00780006





000
SAUS43 KEAX 061753
MTRCDJ
METAR KCDJ 061752Z AUTO 29005KT 06/M01 A3028 RMK AO1 SLP265
T00611006 10067 21044 58004





000
SAUS43 KEAX 061753
MTRCDJ
METAR KCDJ 061752Z AUTO 29005KT 06/M01 A3028 RMK AO1 SLP265
T00611006 10067 21044 58004





000
SAUS43 KEAX 061653
MTRCDJ
METAR KCDJ 061652Z AUTO VRB04KT 04/M01 A3029 RMK AO1 SLP270
T00441011





000
SAUS43 KEAX 061653
MTRCDJ
METAR KCDJ 061652Z AUTO VRB04KT 04/M01 A3029 RMK AO1 SLP270
T00441011





000
SAUS43 KEAX 061553
MTRCDJ
METAR KCDJ 061552Z AUTO 00000KT 04/M02 A3030 RMK AO1 SLP270
T00391022





000
SAUS43 KEAX 061453
MTRCDJ
METAR KCDJ 061452Z AUTO 00000KT 00/M03 A3029 RMK AO1 SLP271
T00001033 50009





000
SAUS43 KEAX 061353
MTRCDJ
METAR KCDJ 061352Z AUTO 00000KT M03/M05 A3030 RMK AO1 SLP275
T10331050





000
SAUS43 KEAX 061253
MTRCDJ
METAR KCDJ 061252Z AUTO 32003KT M04/M06 A3028 RMK AO1 SLP271
T10441061





000
SAUS43 KEAX 061153
MTRCDJ
METAR KCDJ 061152Z AUTO 00000KT M04/M06 A3026 RMK AO1 SLP262
T10391056 10000 21044 56006





000
SAUS43 KEAX 061153
MTRCDJ
METAR KCDJ 061152Z AUTO 00000KT M04/M06 A3026 RMK AO1 SLP262
T10391056 10000 21044 56006





000
SAUS43 KEAX 061053
MTRCDJ
METAR KCDJ 061052Z AUTO 00000KT M03/M06 A3027 RMK AO1 SLP263
T10331056





000
SAUS43 KEAX 061053
MTRCDJ
METAR KCDJ 061052Z AUTO 00000KT M03/M06 A3027 RMK AO1 SLP263
T10331056





000
SAUS43 KEAX 060954
MTRCDJ
METAR KCDJ 060952Z AUTO 00000KT M03/M06 A3026 RMK AO1 SLP261
T10331056





000
SAUS43 KEAX 060954
MTRCDJ
METAR KCDJ 060952Z AUTO 00000KT M03/M06 A3026 RMK AO1 SLP261
T10331056





000
SAUS43 KEAX 060853
MTRCDJ
METAR KCDJ 060852Z AUTO 00000KT M03/M05 A3028 RMK AO1 SLP268
T10331050 56004





000
SAUS43 KEAX 060853
MTRCDJ
METAR KCDJ 060852Z AUTO 00000KT M03/M05 A3028 RMK AO1 SLP268
T10331050 56004





000
SAUS43 KEAX 060753
MTRCDJ
METAR KCDJ 060752Z AUTO 00000KT M02/M05 A3028 RMK AO1 SLP269
T10221050





000
SAUS43 KEAX 060653
MTRCDJ
METAR KCDJ 060652Z AUTO 00000KT 00/M05 A3028 RMK AO1 SLP268
T00001050





000
SAUS43 KEAX 060653
MTRCDJ
METAR KCDJ 060652Z AUTO 00000KT 00/M05 A3028 RMK AO1 SLP268
T00001050





000
SAUS43 KEAX 060553
MTRCDJ
METAR KCDJ 060552Z AUTO 00000KT M01/M05 A3029 RMK AO1 SLP272
T10061050 10022 21022 400331056 58005





000
SAUS43 KEAX 060553
MTRCDJ
METAR KCDJ 060552Z AUTO 00000KT M01/M05 A3029 RMK AO1 SLP272
T10061050 10022 21022 400331056 58005





000
SAUS43 KEAX 060453
MTRCDJ
METAR KCDJ 060452Z AUTO 00000KT M02/M05 A3030 RMK AO1 SLP275
T10221050





000
SAUS43 KEAX 060353
MTRCDJ
METAR KCDJ 060352Z AUTO 00000KT 00/M06 A3030 RMK AO1 SLP276
T00001056





000
SAUS43 KEAX 060253
MTRCDJ
METAR KCDJ 060252Z AUTO 00000KT 01/M05 A3031 RMK AO1 SLP279
T00061050 58007





000
SAUS43 KEAX 060253
MTRCDJ
METAR KCDJ 060252Z AUTO 00000KT 01/M05 A3031 RMK AO1 SLP279
T00061050 58007





000
SAUS43 KEAX 060153
MTRCDJ
METAR KCDJ 060152Z AUTO 00000KT 01/M06 A3031 RMK AO1 SLP282
T00111056





000
SAUS43 KEAX 060153
MTRCDJ
METAR KCDJ 060152Z AUTO 00000KT 01/M06 A3031 RMK AO1 SLP282
T00111056





000
SAUS43 KEAX 060053
MTRCDJ
METAR KCDJ 060052Z AUTO 14004KT 02/M05 A3033 RMK AO1 SLP287
T00171050





000
SAUS43 KEAX 060053
MTRCDJ
METAR KCDJ 060052Z AUTO 14004KT 02/M05 A3033 RMK AO1 SLP287
T00171050





000
SAUS43 KEAX 052353
MTRCDJ
METAR KCDJ 052352Z AUTO VRB03KT 02/M06 A3033 RMK AO1 SLP286
T00221056 10033 21006 58005





000
SAUS43 KEAX 052353
MTRCDJ
METAR KCDJ 052352Z AUTO VRB03KT 02/M06 A3033 RMK AO1 SLP286
T00221056 10033 21006 58005





000
SAUS43 KEAX 052253
MTRCDJ
METAR KCDJ 052252Z AUTO 14006KT 03/M06 A3033 RMK AO1 SLP287
T00281056





000
SAUS43 KEAX 052253
MTRCDJ
METAR KCDJ 052252Z AUTO 14006KT 03/M06 A3033 RMK AO1 SLP287
T00281056





000
SAUS43 KEAX 052153
MTRCDJ
METAR KCDJ 052152Z AUTO VRB04KT 03/M06 A3035 RMK AO1 SLP292
T00281056





000
SAUS43 KEAX 052153
MTRCDJ
METAR KCDJ 052152Z AUTO VRB04KT 03/M06 A3035 RMK AO1 SLP292
T00281056





000
SAUS43 KEAX 052053
MTRCDJ
METAR KCDJ 052052Z AUTO VRB03KT 03/M05 A3035 RMK AO1 SLP291
T00281050 56026





000
SAUS43 KEAX 051953
MTRCDJ
METAR KCDJ 051952Z AUTO VRB03KT 02/M04 A3036 RMK AO1 SLP297
T00171044





000
SAUS43 KEAX 051853
MTRCDJ
METAR KCDJ 051852Z AUTO 16004KT 01/M05 A3039 RMK AO1 SLP306
T00061050





000
SAUS43 KEAX 051853
MTRCDJ
METAR KCDJ 051852Z AUTO 16004KT 01/M05 A3039 RMK AO1 SLP306
T00061050





000
SAUS43 KEAX 051753
MTRCDJ
METAR KCDJ 051752Z AUTO VRB03KT 00/M05 A3043 RMK AO1 SLP319
T00001050 10000 21050 58010





000
SAUS43 KEAX 051753
MTRCDJ
METAR KCDJ 051752Z AUTO VRB03KT 00/M05 A3043 RMK AO1 SLP319
T00001050 10000 21050 58010





000
SAUS43 KEAX 051653
MTRCDJ
METAR KCDJ 051652Z AUTO VRB04KT M01/M06 A3045 RMK AO1 SLP329
T10061061





000
SAUS43 KEAX 051553
MTRCDJ
METAR KCDJ 051552Z AUTO 12005KT M02/M07 A3043 RMK AO1 SLP322
T10221067





000
SAUS43 KEAX 051453
MTRCDJ
METAR KCDJ 051452Z AUTO 00000KT M03/M07 A3046 RMK AO1 SLP329
T10331072 51016





000
SAUS43 KEAX 051353
MTRCDJ
METAR KCDJ 051352Z AUTO 00000KT M04/M07 A3044 RMK AO1 SLP323
T10441072





000
SAUS43 KEAX 051353
MTRCDJ
METAR KCDJ 051352Z AUTO 00000KT M04/M07 A3044 RMK AO1 SLP323
T10441072





000
SAUS43 KEAX 051253
MTRCDJ
METAR KCDJ 051252Z AUTO 00000KT M05/M07 A3043 RMK AO1 SLP319
T10501072





000
SAUS43 KEAX 051253
MTRCDJ
METAR KCDJ 051252Z AUTO 00000KT M05/M07 A3043 RMK AO1 SLP319
T10501072





000
SAUS43 KEAX 051153
MTRCDJ
METAR KCDJ 051152Z AUTO 03003KT M04/M07 A3041 RMK AO1 SLP312
T10441067 11028 21056 53006





000
SAUS43 KEAX 051153
MTRCDJ
METAR KCDJ 051152Z AUTO 03003KT M04/M07 A3041 RMK AO1 SLP312
T10441067 11028 21056 53006





000
SAUS43 KEAX 051053
MTRCDJ
METAR KCDJ 051052Z AUTO 00000KT M05/M07 A3040 RMK AO1 SLP307
T10501067





000
SAUS43 KEAX 050953
MTRCDJ
METAR KCDJ 050952Z AUTO 00000KT M05/M07 A3039 RMK AO1 SLP303
T10501072





000
SAUS43 KEAX 050853
MTRCDJ
METAR KCDJ 050852Z AUTO 00000KT M05/M07 A3039 RMK AO1 SLP304
T10501072 51005





000
SAUS43 KEAX 050853
MTRCDJ
METAR KCDJ 050852Z AUTO 00000KT M05/M07 A3039 RMK AO1 SLP304
T10501072 51005





000
SAUS43 KEAX 050753
MTRCDJ
METAR KCDJ 050752Z AUTO 31003KT M04/M07 A3039 RMK AO1 SLP304
T10441067





000
SAUS43 KEAX 050653
MTRCDJ
METAR KCDJ 050652Z AUTO 33003KT M03/M07 A3038 RMK AO1 SLP301
T10331067





000
SAUS43 KEAX 050653
MTRCDJ
METAR KCDJ 050652Z AUTO 33003KT M03/M07 A3038 RMK AO1 SLP301
T10331067





000
SAUS43 KEAX 050553
MTRCDJ
METAR KCDJ 050552Z AUTO 32004KT M03/M07 A3038 RMK AO1 SLP301
T10281067 10044 21028 400671072 51020





000
SAUS43 KEAX 050553
MTRCDJ
METAR KCDJ 050552Z AUTO 32004KT M03/M07 A3038 RMK AO1 SLP301
T10281067 10044 21028 400671072 51020





000
SAUS43 KEAX 050453
MTRCDJ
METAR KCDJ 050452Z AUTO 34005KT M02/M06 A3035 RMK AO1 SLP292
T10221061





000
SAUS43 KEAX 050453
MTRCDJ
METAR KCDJ 050452Z AUTO 34005KT M02/M06 A3035 RMK AO1 SLP292
T10221061





000
SAUS43 KEAX 050353
MTRCDJ
METAR KCDJ 050352Z AUTO 33005KT M01/M06 A3034 RMK AO1 SLP292
T10111056





000
SAUS43 KEAX 050254
MTRCDJ
METAR KCDJ 050252Z AUTO 32006KT 01/M05 A3031 RMK AO1 SLP282
T00061050 53017





000
SAUS43 KEAX 050153
MTRCDJ
METAR KCDJ 050152Z AUTO 31007KT 02/M05 A3028 RMK AO1 SLP272
T00171050





000
SAUS43 KEAX 050153
MTRCDJ
METAR KCDJ 050152Z AUTO 31007KT 02/M05 A3028 RMK AO1 SLP272
T00171050





000
SAUS43 KEAX 050053
MTRCDJ
METAR KCDJ 050052Z AUTO 29004KT 03/M06 A3028 RMK AO1 SLP268
T00281061





000
SAUS43 KEAX 050053
MTRCDJ
METAR KCDJ 050052Z AUTO 29004KT 03/M06 A3028 RMK AO1 SLP268
T00281061





    US Dept of Commerce
    National Oceanic and Atmospheric Administration
    National Weather Service
    1325 East West Highway
    Silver Spring, MD 20910
    Page Author: NWS Internet Services Team
Disclaimer
Information Quality
Credits
Glossary
Privacy Policy
Freedom of Information Act (FOIA)
About Us
Career Opportunities